sensor_id;sensor_type;location;lat;lon;timestamp;P1;durP1;ratioP1;P2;durP2;ratioP2
18320;SDS011;54904;54.350;18.664;2022-07-23T00:01:23;1.15;;;1.15;;
18320;SDS011;54904;54.350;18.664;2022-07-23T00:03:52;1.00;;;1.00;;
18320;SDS011;54904;54.350;18.664;2022-07-23T00:06:20;1.08;;;1.00;;
18320;SDS011;54904;54.350;18.664;2022-07-23T00:08:47;1.17;;;1.17;;
18320;SDS011;54904;54.350;18.664;2022-07-23T00:11:14;1.20;;;1.20;;
18320;SDS011;54904;54.350;18.664;2022-07-23T00:13:41;5.55;;;1.23;;
18320;SDS011;54904;54.350;18.664;2022-07-23T00:16:09;1.35;;;1.30;;
18320;SDS011;54904;54.350;18.664;2022-07-23T00:18:37;1.60;;;1.50;;
18320;SDS011;54904;54.350;18.664;2022-07-23T00:21:04;1.30;;;1.25;;
18320;SDS011;54904;54.350;18.664;2022-07-23T00:23:33;1.20;;;1.20;;
18320;SDS011;54904;54.350;18.664;2022-07-23T00:25:59;1.00;;;1.00;;
18320;SDS011;54904;54.350;18.664;2022-07-23T00:28:27;1.15;;;1.15;;
18320;SDS011;54904;54.350;18.664;2022-07-23T00:30:54;1.52;;;1.42;;
18320;SDS011;54904;54.350;18.664;2022-07-23T00:33:21;1.55;;;1.45;;
18320;SDS011;54904;54.350;18.664;2022-07-23T00:35:49;1.30;;;1.30;;
18320;SDS011;54904;54.350;18.664;2022-07-23T00:38:17;1.70;;;1.60;;
18320;SDS011;54904;54.350;18.664;2022-07-23T00:40:44;1.20;;;1.20;;
18320;SDS011;54904;54.350;18.664;2022-07-23T00:43:11;1.20;;;1.20;;
18320;SDS011;54904;54.350;18.664;2022-07-23T00:45:38;1.25;;;1.25;;
18320;SDS011;54904;54.350;18.664;2022-07-23T00:48:06;1.50;;;1.40;;
18320;SDS011;54904;54.350;18.664;2022-07-23T00:50:33;1.10;;;1.10;;
18320;SDS011;54904;54.350;18.664;2022-07-23T00:53:02;1.15;;;1.15;;
18320;SDS011;54904;54.350;18.664;2022-07-23T00:55:29;1.20;;;1.20;;
18320;SDS011;54904;54.350;18.664;2022-07-23T00:57:56;1.50;;;1.40;;
18320;SDS011;54904;54.350;18.664;2022-07-23T01:00:24;1.50;;;1.50;;
18320;SDS011;54904;54.350;18.664;2022-07-23T01:02:52;1.35;;;1.35;;
18320;SDS011;54904;54.350;18.664;2022-07-23T01:05:19;1.40;;;1.40;;
18320;SDS011;54904;54.350;18.664;2022-07-23T01:07:47;1.40;;;1.40;;
18320;SDS011;54904;54.350;18.664;2022-07-23T01:10:16;1.20;;;1.20;;
18320;SDS011;54904;54.350;18.664;2022-07-23T01:12:59;1.48;;;1.38;;
18320;SDS011;54904;54.350;18.664;2022-07-23T01:15:27;1.35;;;1.35;;
18320;SDS011;54904;54.350;18.664;2022-07-23T01:17:55;1.10;;;1.10;;
18320;SDS011;54904;54.350;18.664;2022-07-23T01:20:22;1.60;;;1.50;;
18320;SDS011;54904;54.350;18.664;2022-07-23T01:22:52;1.45;;;1.35;;
18320;SDS011;54904;54.350;18.664;2022-07-23T01:25:20;1.95;;;1.80;;
18320;SDS011;54904;54.350;18.664;2022-07-23T01:27:54;1.20;;;1.20;;
18320;SDS011;54904;54.350;18.664;2022-07-23T01:30:22;1.50;;;1.40;;
18320;SDS011;54904;54.350;18.664;2022-07-23T01:32:49;1.85;;;1.75;;
18320;SDS011;54904;54.350;18.664;2022-07-23T01:35:16;1.80;;;1.70;;
18320;SDS011;54904;54.350;18.664;2022-07-23T01:37:44;1.65;;;1.55;;
18320;SDS011;54904;54.350;18.664;2022-07-23T01:40:13;1.55;;;1.50;;
18320;SDS011;54904;54.350;18.664;2022-07-23T01:42:40;2.22;;;2.10;;
18320;SDS011;54904;54.350;18.664;2022-07-23T01:45:10;2.30;;;2.20;;
18320;SDS011;54904;54.350;18.664;2022-07-23T01:47:41;2.33;;;1.90;;
18320;SDS011;54904;54.350;18.664;2022-07-23T01:50:08;2.28;;;2.15;;
18320;SDS011;54904;54.350;18.664;2022-07-23T01:52:42;1.85;;;1.75;;
18320;SDS011;54904;54.350;18.664;2022-07-23T01:55:10;1.85;;;1.75;;
18320;SDS011;54904;54.350;18.664;2022-07-23T01:57:42;2.00;;;1.85;;
18320;SDS011;54904;54.350;18.664;2022-07-23T02:00:11;1.70;;;1.60;;
18320;SDS011;54904;54.350;18.664;2022-07-23T02:02:38;1.80;;;1.70;;
18320;SDS011;54904;54.350;18.664;2022-07-23T02:05:06;15.07;;;2.28;;
18320;SDS011;54904;54.350;18.664;2022-07-23T02:07:34;1.67;;;1.58;;
18320;SDS011;54904;54.350;18.664;2022-07-23T02:10:01;2.08;;;1.98;;
18320;SDS011;54904;54.350;18.664;2022-07-23T02:12:28;3.30;;;1.77;;
18320;SDS011;54904;54.350;18.664;2022-07-23T02:14:57;1.77;;;1.67;;
18320;SDS011;54904;54.350;18.664;2022-07-23T02:17:24;2.10;;;1.92;;
18320;SDS011;54904;54.350;18.664;2022-07-23T02:19:51;1.92;;;1.83;;
18320;SDS011;54904;54.350;18.664;2022-07-23T02:22:21;1.92;;;1.77;;
18320;SDS011;54904;54.350;18.664;2022-07-23T02:24:48;1.70;;;1.60;;
18320;SDS011;54904;54.350;18.664;2022-07-23T02:27:15;1.40;;;1.35;;
18320;SDS011;54904;54.350;18.664;2022-07-23T02:29:43;1.95;;;1.85;;
18320;SDS011;54904;54.350;18.664;2022-07-23T02:32:14;1.88;;;1.77;;
18320;SDS011;54904;54.350;18.664;2022-07-23T02:34:43;5.40;;;2.75;;
18320;SDS011;54904;54.350;18.664;2022-07-23T02:37:10;2.55;;;2.45;;
18320;SDS011;54904;54.350;18.664;2022-07-23T02:39:37;2.30;;;2.20;;
18320;SDS011;54904;54.350;18.664;2022-07-23T02:42:04;2.55;;;2.28;;
18320;SDS011;54904;54.350;18.664;2022-07-23T02:44:33;2.05;;;1.95;;
18320;SDS011;54904;54.350;18.664;2022-07-23T02:47:00;1.83;;;1.73;;
18320;SDS011;54904;54.350;18.664;2022-07-23T02:49:29;2.05;;;1.73;;
18320;SDS011;54904;54.350;18.664;2022-07-23T02:51:56;1.80;;;1.70;;
18320;SDS011;54904;54.350;18.664;2022-07-23T02:54:23;1.67;;;1.58;;
18320;SDS011;54904;54.350;18.664;2022-07-23T02:56:51;1.90;;;1.80;;
18320;SDS011;54904;54.350;18.664;2022-07-23T02:59:19;1.80;;;1.70;;
18320;SDS011;54904;54.350;18.664;2022-07-23T03:01:47;1.40;;;1.40;;
18320;SDS011;54904;54.350;18.664;2022-07-23T03:04:14;1.40;;;1.40;;
18320;SDS011;54904;54.350;18.664;2022-07-23T03:06:43;1.70;;;1.60;;
18320;SDS011;54904;54.350;18.664;2022-07-23T03:09:10;1.40;;;1.40;;
18320;SDS011;54904;54.350;18.664;2022-07-23T03:11:38;1.60;;;1.50;;
18320;SDS011;54904;54.350;18.664;2022-07-23T03:14:05;2.10;;;2.00;;
18320;SDS011;54904;54.350;18.664;2022-07-23T03:16:34;1.67;;;1.58;;
18320;SDS011;54904;54.350;18.664;2022-07-23T03:19:01;1.55;;;1.50;;
18320;SDS011;54904;54.350;18.664;2022-07-23T03:21:28;1.40;;;1.40;;
18320;SDS011;54904;54.350;18.664;2022-07-23T03:23:57;1.70;;;1.60;;
18320;SDS011;54904;54.350;18.664;2022-07-23T03:26:24;1.60;;;1.60;;
18320;SDS011;54904;54.350;18.664;2022-07-23T03:28:51;1.60;;;1.50;;
18320;SDS011;54904;54.350;18.664;2022-07-23T03:31:18;1.40;;;1.13;;
18320;SDS011;54904;54.350;18.664;2022-07-23T03:33:45;1.55;;;1.45;;
18320;SDS011;54904;54.350;18.664;2022-07-23T03:36:13;1.60;;;1.50;;
18320;SDS011;54904;54.350;18.664;2022-07-23T03:38:43;1.80;;;1.70;;
18320;SDS011;54904;54.350;18.664;2022-07-23T03:41:12;1.65;;;1.55;;
18320;SDS011;54904;54.350;18.664;2022-07-23T03:43:39;1.85;;;1.75;;
18320;SDS011;54904;54.350;18.664;2022-07-23T03:46:06;1.70;;;1.60;;
18320;SDS011;54904;54.350;18.664;2022-07-23T03:48:33;1.52;;;1.50;;
18320;SDS011;54904;54.350;18.664;2022-07-23T03:51:00;1.77;;;1.67;;
18320;SDS011;54904;54.350;18.664;2022-07-23T03:53:27;1.35;;;1.35;;
18320;SDS011;54904;54.350;18.664;2022-07-23T03:55:55;1.55;;;1.45;;
18320;SDS011;54904;54.350;18.664;2022-07-23T03:58:24;1.70;;;1.60;;
18320;SDS011;54904;54.350;18.664;2022-07-23T04:00:51;1.77;;;1.40;;
18320;SDS011;54904;54.350;18.664;2022-07-23T04:03:18;1.48;;;1.38;;
18320;SDS011;54904;54.350;18.664;2022-07-23T04:05:47;1.90;;;1.80;;
18320;SDS011;54904;54.350;18.664;2022-07-23T04:08:14;1.80;;;1.70;;
18320;SDS011;54904;54.350;18.664;2022-07-23T04:10:48;1.98;;;1.88;;
18320;SDS011;54904;54.350;18.664;2022-07-23T04:13:15;1.95;;;1.65;;
18320;SDS011;54904;54.350;18.664;2022-07-23T04:15:43;1.90;;;1.80;;
18320;SDS011;54904;54.350;18.664;2022-07-23T04:18:10;1.90;;;1.80;;
18320;SDS011;54904;54.350;18.664;2022-07-23T04:20:45;1.70;;;1.60;;
18320;SDS011;54904;54.350;18.664;2022-07-23T04:23:14;1.77;;;1.67;;
18320;SDS011;54904;54.350;18.664;2022-07-23T04:25:42;1.70;;;1.60;;
18320;SDS011;54904;54.350;18.664;2022-07-23T04:28:09;2.08;;;1.90;;
18320;SDS011;54904;54.350;18.664;2022-07-23T04:30:37;2.17;;;2.00;;
18320;SDS011;54904;54.350;18.664;2022-07-23T04:33:14;2.35;;;2.15;;
18320;SDS011;54904;54.350;18.664;2022-07-23T04:36:09;1.83;;;1.73;;
18320;SDS011;54904;54.350;18.664;2022-07-23T04:38:37;1.80;;;1.70;;
18320;SDS011;54904;54.350;18.664;2022-07-23T04:41:04;2.33;;;1.60;;
18320;SDS011;54904;54.350;18.664;2022-07-23T04:43:31;2.00;;;1.90;;
18320;SDS011;54904;54.350;18.664;2022-07-23T04:45:58;2.15;;;1.83;;
18320;SDS011;54904;54.350;18.664;2022-07-23T04:48:27;2.00;;;1.70;;
18320;SDS011;54904;54.350;18.664;2022-07-23T04:51:06;2.95;;;2.53;;
18320;SDS011;54904;54.350;18.664;2022-07-23T04:53:33;2.17;;;2.08;;
18320;SDS011;54904;54.350;18.664;2022-07-23T04:56:03;2.30;;;2.20;;
18320;SDS011;54904;54.350;18.664;2022-07-23T04:58:31;2.17;;;2.08;;
18320;SDS011;54904;54.350;18.664;2022-07-23T05:00:58;1.90;;;1.80;;
18320;SDS011;54904;54.350;18.664;2022-07-23T05:03:28;2.08;;;1.98;;
18320;SDS011;54904;54.350;18.664;2022-07-23T05:05:56;1.92;;;1.83;;
18320;SDS011;54904;54.350;18.664;2022-07-23T05:08:24;1.80;;;1.67;;
18320;SDS011;54904;54.350;18.664;2022-07-23T05:10:54;1.73;;;1.63;;
18320;SDS011;54904;54.350;18.664;2022-07-23T05:13:21;1.88;;;1.77;;
18320;SDS011;54904;54.350;18.664;2022-07-23T05:15:50;2.13;;;2.03;;
18320;SDS011;54904;54.350;18.664;2022-07-23T05:18:18;2.20;;;2.00;;
18320;SDS011;54904;54.350;18.664;2022-07-23T05:20:46;1.88;;;1.77;;
18320;SDS011;54904;54.350;18.664;2022-07-23T05:23:17;2.25;;;2.00;;
18320;SDS011;54904;54.350;18.664;2022-07-23T05:25:46;1.77;;;1.65;;
18320;SDS011;54904;54.350;18.664;2022-07-23T05:28:13;1.60;;;1.50;;
18320;SDS011;54904;54.350;18.664;2022-07-23T05:30:40;1.80;;;1.70;;
18320;SDS011;54904;54.350;18.664;2022-07-23T05:33:10;2.15;;;1.70;;
18320;SDS011;54904;54.350;18.664;2022-07-23T05:35:39;1.85;;;1.80;;
18320;SDS011;54904;54.350;18.664;2022-07-23T05:38:26;2.33;;;2.15;;
18320;SDS011;54904;54.350;18.664;2022-07-23T05:40:55;1.90;;;1.80;;
18320;SDS011;54904;54.350;18.664;2022-07-23T05:43:23;2.25;;;2.05;;
18320;SDS011;54904;54.350;18.664;2022-07-23T05:45:50;1.90;;;1.67;;
18320;SDS011;54904;54.350;18.664;2022-07-23T05:48:17;1.80;;;1.70;;
18320;SDS011;54904;54.350;18.664;2022-07-23T05:50:57;3.78;;;2.05;;
18320;SDS011;54904;54.350;18.664;2022-07-23T05:53:31;3.05;;;2.20;;
18320;SDS011;54904;54.350;18.664;2022-07-23T05:56:08;2.78;;;1.90;;
18320;SDS011;54904;54.350;18.664;2022-07-23T05:58:36;1.77;;;1.67;;
18320;SDS011;54904;54.350;18.664;2022-07-23T06:01:03;1.60;;;1.50;;
18320;SDS011;54904;54.350;18.664;2022-07-23T06:03:39;2.00;;;1.90;;
18320;SDS011;54904;54.350;18.664;2022-07-23T06:06:06;3.90;;;1.60;;
18320;SDS011;54904;54.350;18.664;2022-07-23T06:08:36;1.65;;;1.52;;
18320;SDS011;54904;54.350;18.664;2022-07-23T06:11:04;2.65;;;2.20;;
18320;SDS011;54904;54.350;18.664;2022-07-23T06:13:31;2.50;;;2.30;;
18320;SDS011;54904;54.350;18.664;2022-07-23T06:15:58;2.22;;;2.10;;
18320;SDS011;54904;54.350;18.664;2022-07-23T06:18:25;1.95;;;1.80;;
18320;SDS011;54904;54.350;18.664;2022-07-23T06:20:53;2.10;;;1.95;;
18320;SDS011;54904;54.350;18.664;2022-07-23T06:23:20;2.22;;;1.63;;
18320;SDS011;54904;54.350;18.664;2022-07-23T06:25:49;1.70;;;1.60;;
18320;SDS011;54904;54.350;18.664;2022-07-23T06:28:16;2.58;;;1.77;;
18320;SDS011;54904;54.350;18.664;2022-07-23T06:30:43;1.73;;;1.63;;
18320;SDS011;54904;54.350;18.664;2022-07-23T06:33:10;2.20;;;1.50;;
18320;SDS011;54904;54.350;18.664;2022-07-23T06:35:38;1.60;;;1.50;;
18320;SDS011;54904;54.350;18.664;2022-07-23T06:38:06;1.55;;;1.55;;
18320;SDS011;54904;54.350;18.664;2022-07-23T06:40:34;1.70;;;1.60;;
18320;SDS011;54904;54.350;18.664;2022-07-23T06:43:02;1.45;;;1.35;;
18320;SDS011;54904;54.350;18.664;2022-07-23T06:45:29;1.92;;;1.77;;
18320;SDS011;54904;54.350;18.664;2022-07-23T06:47:57;2.20;;;2.00;;
18320;SDS011;54904;54.350;18.664;2022-07-23T06:50:24;1.90;;;1.80;;
18320;SDS011;54904;54.350;18.664;2022-07-23T06:52:51;2.40;;;2.20;;
18320;SDS011;54904;54.350;18.664;2022-07-23T06:55:19;2.92;;;2.70;;
18320;SDS011;54904;54.350;18.664;2022-07-23T06:57:46;2.78;;;2.50;;
18320;SDS011;54904;54.350;18.664;2022-07-23T07:00:16;2.17;;;2.08;;
18320;SDS011;54904;54.350;18.664;2022-07-23T07:02:44;2.10;;;1.90;;
18320;SDS011;54904;54.350;18.664;2022-07-23T07:05:11;3.13;;;1.60;;
18320;SDS011;54904;54.350;18.664;2022-07-23T07:07:38;2.40;;;2.30;;
18320;SDS011;54904;54.350;18.664;2022-07-23T07:10:05;3.20;;;2.42;;
18320;SDS011;54904;54.350;18.664;2022-07-23T07:12:33;3.65;;;2.80;;
18320;SDS011;54904;54.350;18.664;2022-07-23T07:15:00;2.70;;;2.50;;
18320;SDS011;54904;54.350;18.664;2022-07-23T07:17:28;2.10;;;2.00;;
18320;SDS011;54904;54.350;18.664;2022-07-23T07:19:56;3.72;;;2.50;;
18320;SDS011;54904;54.350;18.664;2022-07-23T07:22:23;3.88;;;2.80;;
18320;SDS011;54904;54.350;18.664;2022-07-23T07:24:50;4.05;;;2.78;;
18320;SDS011;54904;54.350;18.664;2022-07-23T07:27:17;2.88;;;2.55;;
18320;SDS011;54904;54.350;18.664;2022-07-23T07:29:44;2.28;;;2.13;;
18320;SDS011;54904;54.350;18.664;2022-07-23T07:32:11;2.67;;;2.47;;
18320;SDS011;54904;54.350;18.664;2022-07-23T07:34:39;2.45;;;2.35;;
18320;SDS011;54904;54.350;18.664;2022-07-23T07:37:06;2.60;;;2.40;;
18320;SDS011;54904;54.350;18.664;2022-07-23T07:39:33;2.30;;;2.20;;
18320;SDS011;54904;54.350;18.664;2022-07-23T07:42:00;2.13;;;2.03;;
18320;SDS011;54904;54.350;18.664;2022-07-23T07:44:27;2.00;;;1.90;;
18320;SDS011;54904;54.350;18.664;2022-07-23T07:46:55;4.40;;;2.35;;
18320;SDS011;54904;54.350;18.664;2022-07-23T07:49:22;2.63;;;2.42;;
18320;SDS011;54904;54.350;18.664;2022-07-23T07:51:50;2.53;;;2.25;;
18320;SDS011;54904;54.350;18.664;2022-07-23T07:54:17;2.38;;;2.28;;
18320;SDS011;54904;54.350;18.664;2022-07-23T07:56:44;2.25;;;2.03;;
18320;SDS011;54904;54.350;18.664;2022-07-23T07:59:11;2.53;;;2.33;;
18320;SDS011;54904;54.350;18.664;2022-07-23T08:01:39;3.33;;;2.40;;
18320;SDS011;54904;54.350;18.664;2022-07-23T08:04:06;2.25;;;2.10;;
18320;SDS011;54904;54.350;18.664;2022-07-23T08:06:34;2.30;;;2.15;;
18320;SDS011;54904;54.350;18.664;2022-07-23T08:09:02;2.40;;;2.20;;
18320;SDS011;54904;54.350;18.664;2022-07-23T08:11:29;2.17;;;2.08;;
18320;SDS011;54904;54.350;18.664;2022-07-23T08:13:56;2.47;;;2.28;;
18320;SDS011;54904;54.350;18.664;2022-07-23T08:16:23;2.10;;;2.00;;
18320;SDS011;54904;54.350;18.664;2022-07-23T08:18:50;2.95;;;2.75;;
18320;SDS011;54904;54.350;18.664;2022-07-23T08:21:17;3.10;;;2.90;;
18320;SDS011;54904;54.350;18.664;2022-07-23T08:23:45;2.00;;;1.90;;
18320;SDS011;54904;54.350;18.664;2022-07-23T08:26:13;2.80;;;2.60;;
18320;SDS011;54904;54.350;18.664;2022-07-23T08:28:40;2.85;;;2.60;;
18320;SDS011;54904;54.350;18.664;2022-07-23T08:31:07;2.88;;;2.63;;
18320;SDS011;54904;54.350;18.664;2022-07-23T08:33:36;3.22;;;2.55;;
18320;SDS011;54904;54.350;18.664;2022-07-23T08:36:04;3.25;;;2.20;;
18320;SDS011;54904;54.350;18.664;2022-07-23T08:38:31;2.47;;;2.28;;
18320;SDS011;54904;54.350;18.664;2022-07-23T08:41:01;2.10;;;2.00;;
18320;SDS011;54904;54.350;18.664;2022-07-23T08:43:32;2.13;;;1.90;;
18320;SDS011;54904;54.350;18.664;2022-07-23T08:46:01;2.60;;;2.40;;
18320;SDS011;54904;54.350;18.664;2022-07-23T08:48:29;4.03;;;2.92;;
18320;SDS011;54904;54.350;18.664;2022-07-23T08:50:59;2.60;;;2.40;;
18320;SDS011;54904;54.350;18.664;2022-07-23T08:53:27;2.13;;;2.03;;
18320;SDS011;54904;54.350;18.664;2022-07-23T08:55:56;2.13;;;2.00;;
18320;SDS011;54904;54.350;18.664;2022-07-23T08:58:24;2.30;;;2.10;;
18320;SDS011;54904;54.350;18.664;2022-07-23T09:00:53;1.80;;;1.80;;
18320;SDS011;54904;54.350;18.664;2022-07-23T09:03:22;2.60;;;2.40;;
18320;SDS011;54904;54.350;18.664;2022-07-23T09:05:50;5.03;;;2.65;;
18320;SDS011;54904;54.350;18.664;2022-07-23T09:08:18;3.20;;;2.90;;
18320;SDS011;54904;54.350;18.664;2022-07-23T09:10:50;2.60;;;2.50;;
18320;SDS011;54904;54.350;18.664;2022-07-23T09:13:23;2.08;;;1.98;;
18320;SDS011;54904;54.350;18.664;2022-07-23T09:15:54;1.90;;;1.80;;
18320;SDS011;54904;54.350;18.664;2022-07-23T09:18:33;2.03;;;1.92;;
18320;SDS011;54904;54.350;18.664;2022-07-23T09:21:10;2.10;;;2.00;;
18320;SDS011;54904;54.350;18.664;2022-07-23T09:23:49;2.30;;;2.20;;
18320;SDS011;54904;54.350;18.664;2022-07-23T09:26:22;2.50;;;2.30;;
18320;SDS011;54904;54.350;18.664;2022-07-23T09:28:58;2.10;;;2.00;;
18320;SDS011;54904;54.350;18.664;2022-07-23T09:31:32;1.88;;;1.77;;
18320;SDS011;54904;54.350;18.664;2022-07-23T09:34:07;2.10;;;2.00;;
18320;SDS011;54904;54.350;18.664;2022-07-23T09:36:36;2.03;;;1.92;;
18320;SDS011;54904;54.350;18.664;2022-07-23T09:39:04;2.63;;;2.28;;
18320;SDS011;54904;54.350;18.664;2022-07-23T09:41:41;2.53;;;2.33;;
18320;SDS011;54904;54.350;18.664;2022-07-23T09:44:10;2.00;;;1.90;;
18320;SDS011;54904;54.350;18.664;2022-07-23T09:46:42;1.77;;;1.67;;
18320;SDS011;54904;54.350;18.664;2022-07-23T09:49:11;1.90;;;1.65;;
18320;SDS011;54904;54.350;18.664;2022-07-23T09:51:43;2.03;;;1.92;;
18320;SDS011;54904;54.350;18.664;2022-07-23T09:54:20;1.92;;;1.83;;
18320;SDS011;54904;54.350;18.664;2022-07-23T09:57:01;2.65;;;2.45;;
18320;SDS011;54904;54.350;18.664;2022-07-23T09:59:31;2.33;;;2.10;;
18320;SDS011;54904;54.350;18.664;2022-07-23T10:02:01;2.65;;;2.45;;
18320;SDS011;54904;54.350;18.664;2022-07-23T10:04:36;4.22;;;2.70;;
18320;SDS011;54904;54.350;18.664;2022-07-23T10:07:14;2.80;;;2.53;;
18320;SDS011;54904;54.350;18.664;2022-07-23T10:10:03;3.45;;;3.15;;
18320;SDS011;54904;54.350;18.664;2022-07-23T10:12:43;2.55;;;2.35;;
18320;SDS011;54904;54.350;18.664;2022-07-23T10:15:25;2.67;;;2.50;;
18320;SDS011;54904;54.350;18.664;2022-07-23T10:17:54;2.80;;;2.60;;
18320;SDS011;54904;54.350;18.664;2022-07-23T10:20:21;3.15;;;2.70;;
18320;SDS011;54904;54.350;18.664;2022-07-23T10:22:51;2.55;;;2.35;;
18320;SDS011;54904;54.350;18.664;2022-07-23T10:25:32;2.10;;;1.90;;
18320;SDS011;54904;54.350;18.664;2022-07-23T10:28:08;2.50;;;2.30;;
18320;SDS011;54904;54.350;18.664;2022-07-23T10:30:51;1.70;;;1.60;;
18320;SDS011;54904;54.350;18.664;2022-07-23T10:33:30;2.75;;;2.10;;
18320;SDS011;54904;54.350;18.664;2022-07-23T10:36:07;2.67;;;2.47;;
18320;SDS011;54904;54.350;18.664;2022-07-23T10:38:41;2.28;;;2.05;;
18320;SDS011;54904;54.350;18.664;2022-07-23T10:41:30;2.55;;;2.20;;
18320;SDS011;54904;54.350;18.664;2022-07-23T10:44:05;2.03;;;1.92;;
18320;SDS011;54904;54.350;18.664;2022-07-23T10:46:36;2.08;;;1.90;;
18320;SDS011;54904;54.350;18.664;2022-07-23T10:49:28;1.50;;;1.40;;
18320;SDS011;54904;54.350;18.664;2022-07-23T10:52:18;1.80;;;1.70;;
18320;SDS011;54904;54.350;18.664;2022-07-23T10:54:48;1.80;;;1.58;;
18320;SDS011;54904;54.350;18.664;2022-07-23T10:57:16;1.42;;;1.33;;
18320;SDS011;54904;54.350;18.664;2022-07-23T11:02:41;1.63;;;1.52;;
18320;SDS011;54904;54.350;18.664;2022-07-23T11:05:12;1.40;;;1.40;;
18320;SDS011;54904;54.350;18.664;2022-07-23T11:10:42;1.65;;;1.55;;
18320;SDS011;54904;54.350;18.664;2022-07-23T11:13:30;1.30;;;1.30;;
18320;SDS011;54904;54.350;18.664;2022-07-23T11:16:12;1.33;;;1.33;;
18320;SDS011;54904;54.350;18.664;2022-07-23T11:19:05;1.58;;;1.40;;
18320;SDS011;54904;54.350;18.664;2022-07-23T11:21:41;2.97;;;2.40;;
18320;SDS011;54904;54.350;18.664;2022-07-23T11:24:13;4.20;;;2.25;;
18320;SDS011;54904;54.350;18.664;2022-07-23T11:29:42;1.80;;;1.70;;
18320;SDS011;54904;54.350;18.664;2022-07-23T11:34:58;1.33;;;1.30;;
18320;SDS011;54904;54.350;18.664;2022-07-23T11:37:29;1.50;;;1.40;;
18320;SDS011;54904;54.350;18.664;2022-07-23T11:40:03;1.23;;;1.20;;
18320;SDS011;54904;54.350;18.664;2022-07-23T11:42:34;1.30;;;1.30;;
18320;SDS011;54904;54.350;18.664;2022-07-23T11:45:05;1.33;;;1.20;;
18320;SDS011;54904;54.350;18.664;2022-07-23T11:47:34;1.30;;;1.30;;
18320;SDS011;54904;54.350;18.664;2022-07-23T11:50:02;1.23;;;1.13;;
18320;SDS011;54904;54.350;18.664;2022-07-23T11:52:34;1.45;;;1.40;;
18320;SDS011;54904;54.350;18.664;2022-07-23T11:55:02;1.50;;;1.40;;
18320;SDS011;54904;54.350;18.664;2022-07-23T11:57:31;1.02;;;1.02;;
18320;SDS011;54904;54.350;18.664;2022-07-23T12:00:01;1.90;;;1.13;;
18320;SDS011;54904;54.350;18.664;2022-07-23T12:02:37;1.27;;;1.27;;
18320;SDS011;54904;54.350;18.664;2022-07-23T12:05:05;1.40;;;1.30;;
18320;SDS011;54904;54.350;18.664;2022-07-23T12:07:36;1.45;;;1.35;;
18320;SDS011;54904;54.350;18.664;2022-07-23T12:10:08;1.48;;;1.40;;
18320;SDS011;54904;54.350;18.664;2022-07-23T12:12:37;1.20;;;1.20;;
18320;SDS011;54904;54.350;18.664;2022-07-23T12:15:06;1.20;;;1.20;;
18320;SDS011;54904;54.350;18.664;2022-07-23T12:17:34;1.50;;;1.40;;
18320;SDS011;54904;54.350;18.664;2022-07-23T12:20:06;1.52;;;1.42;;
18320;SDS011;54904;54.350;18.664;2022-07-23T12:22:36;2.00;;;1.80;;
18320;SDS011;54904;54.350;18.664;2022-07-23T12:25:06;2.33;;;2.00;;
18320;SDS011;54904;54.350;18.664;2022-07-23T12:27:35;1.60;;;1.50;;
18320;SDS011;54904;54.350;18.664;2022-07-23T12:30:18;1.80;;;1.70;;
18320;SDS011;54904;54.350;18.664;2022-07-23T12:32:50;2.20;;;2.00;;
18320;SDS011;54904;54.350;18.664;2022-07-23T12:35:19;2.85;;;1.83;;
18320;SDS011;54904;54.350;18.664;2022-07-23T12:37:49;1.58;;;1.48;;
18320;SDS011;54904;54.350;18.664;2022-07-23T12:40:30;1.55;;;1.52;;
18320;SDS011;54904;54.350;18.664;2022-07-23T12:42:58;1.70;;;1.60;;
18320;SDS011;54904;54.350;18.664;2022-07-23T12:45:28;1.80;;;1.70;;
18320;SDS011;54904;54.350;18.664;2022-07-23T12:48:08;1.52;;;1.48;;
18320;SDS011;54904;54.350;18.664;2022-07-23T12:50:43;1.55;;;1.45;;
18320;SDS011;54904;54.350;18.664;2022-07-23T12:53:16;1.70;;;1.60;;
18320;SDS011;54904;54.350;18.664;2022-07-23T12:55:45;2.25;;;1.70;;
18320;SDS011;54904;54.350;18.664;2022-07-23T12:58:14;1.35;;;1.35;;
18320;SDS011;54904;54.350;18.664;2022-07-23T13:00:59;1.38;;;1.27;;
18320;SDS011;54904;54.350;18.664;2022-07-23T13:03:29;1.63;;;1.52;;
18320;SDS011;54904;54.350;18.664;2022-07-23T13:05:58;1.73;;;1.63;;
18320;SDS011;54904;54.350;18.664;2022-07-23T13:08:28;2.00;;;1.90;;
18320;SDS011;54904;54.350;18.664;2022-07-23T13:10:57;2.38;;;2.17;;
18320;SDS011;54904;54.350;18.664;2022-07-23T13:13:25;2.40;;;2.20;;
18320;SDS011;54904;54.350;18.664;2022-07-23T13:15:53;2.17;;;2.08;;
18320;SDS011;54904;54.350;18.664;2022-07-23T13:18:21;2.17;;;2.08;;
18320;SDS011;54904;54.350;18.664;2022-07-23T13:20:48;1.95;;;1.80;;
18320;SDS011;54904;54.350;18.664;2022-07-23T13:23:16;1.90;;;1.80;;
18320;SDS011;54904;54.350;18.664;2022-07-23T13:25:45;1.67;;;1.58;;
18320;SDS011;54904;54.350;18.664;2022-07-23T13:28:13;1.90;;;1.80;;
18320;SDS011;54904;54.350;18.664;2022-07-23T13:30:40;3.20;;;2.30;;
18320;SDS011;54904;54.350;18.664;2022-07-23T13:33:08;2.75;;;2.55;;
18320;SDS011;54904;54.350;18.664;2022-07-23T13:35:35;2.00;;;1.90;;
18320;SDS011;54904;54.350;18.664;2022-07-23T13:38:03;2.53;;;2.33;;
18320;SDS011;54904;54.350;18.664;2022-07-23T13:40:32;2.55;;;2.38;;
18320;SDS011;54904;54.350;18.664;2022-07-23T13:43:01;2.30;;;2.20;;
18320;SDS011;54904;54.350;18.664;2022-07-23T13:45:28;3.15;;;2.40;;
18320;SDS011;54904;54.350;18.664;2022-07-23T13:47:55;2.60;;;2.40;;
18320;SDS011;54904;54.350;18.664;2022-07-23T13:50:22;2.95;;;2.65;;
18320;SDS011;54904;54.350;18.664;2022-07-23T13:52:50;2.13;;;2.00;;
18320;SDS011;54904;54.350;18.664;2022-07-23T13:55:17;2.45;;;2.30;;
18320;SDS011;54904;54.350;18.664;2022-07-23T13:57:44;2.53;;;2.35;;
18320;SDS011;54904;54.350;18.664;2022-07-23T14:00:12;2.50;;;2.30;;
18320;SDS011;54904;54.350;18.664;2022-07-23T14:02:40;2.30;;;2.20;;
18320;SDS011;54904;54.350;18.664;2022-07-23T14:05:08;2.50;;;2.30;;
18320;SDS011;54904;54.350;18.664;2022-07-23T14:07:37;2.53;;;2.33;;
18320;SDS011;54904;54.350;18.664;2022-07-23T14:10:05;3.00;;;2.67;;
18320;SDS011;54904;54.350;18.664;2022-07-23T14:12:34;2.85;;;2.65;;
18320;SDS011;54904;54.350;18.664;2022-07-23T14:15:01;2.90;;;2.60;;
18320;SDS011;54904;54.350;18.664;2022-07-23T14:17:30;2.90;;;2.70;;
18320;SDS011;54904;54.350;18.664;2022-07-23T14:19:58;2.20;;;2.10;;
18320;SDS011;54904;54.350;18.664;2022-07-23T14:22:25;2.63;;;2.42;;
18320;SDS011;54904;54.350;18.664;2022-07-23T14:24:52;2.20;;;2.10;;
18320;SDS011;54904;54.350;18.664;2022-07-23T14:27:19;2.17;;;2.08;;
18320;SDS011;54904;54.350;18.664;2022-07-23T14:29:47;2.00;;;1.90;;
18320;SDS011;54904;54.350;18.664;2022-07-23T14:32:14;2.00;;;1.83;;
18320;SDS011;54904;54.350;18.664;2022-07-23T14:34:43;1.70;;;1.60;;
18320;SDS011;54904;54.350;18.664;2022-07-23T14:37:10;2.08;;;1.98;;
18320;SDS011;54904;54.350;18.664;2022-07-23T14:39:37;2.22;;;2.00;;
18320;SDS011;54904;54.350;18.664;2022-07-23T14:42:05;2.42;;;2.33;;
18320;SDS011;54904;54.350;18.664;2022-07-23T14:44:32;1.77;;;1.75;;
18320;SDS011;54904;54.350;18.664;2022-07-23T14:47:00;1.73;;;1.65;;
18320;SDS011;54904;54.350;18.664;2022-07-23T14:49:28;1.70;;;1.60;;
18320;SDS011;54904;54.350;18.664;2022-07-23T14:51:56;2.67;;;2.47;;
18320;SDS011;54904;54.350;18.664;2022-07-23T14:54:24;1.75;;;1.65;;
18320;SDS011;54904;54.350;18.664;2022-07-23T14:56:52;2.17;;;2.08;;
18320;SDS011;54904;54.350;18.664;2022-07-23T14:59:20;2.30;;;2.20;;